Wetterdaten: Woche 15.05.23 - 21.05.23 (KW20)
Datum Zeit Temp. Aussen Temp. o. S. Temp +5cm Feuchte Auss Luftdruck Regen Sonnenschein Regendauer Solar Windben Empfang
15.05.2023 00:00 15,4 C 14,1 C 10,7 C 84 % 1015,0 hPa 0,0 l/m 0,00 h 0,00 h 0 W/m 9,1 km/h (2 Bft) 94,72 %
15.05.2023 01:00 14,5 C 13,0 C 9,7 C 90 % 1014,7 hPa 0,0 l/m 0,00 h 0,00 h 0 W/m 6,3 km/h (2 Bft) 97,28 %
15.05.2023 02:00 13,7 C 12,4 C 9,1 C 92 % 1014,4 hPa 0,0 l/m 0,00 h 0,00 h 0 W/m 4,3 km/h (1 Bft) 96,53 %
15.05.2023 03:00 12,8 C 11,5 C 8,4 C 93 % 1014,2 hPa 0,0 l/m 0,00 h 0,00 h 0 W/m 2,6 km/h (1 Bft) 97,19 %
15.05.2023 04:00 12,0 C 11,2 C 8,2 C 94 % 1014,4 hPa 0,0 l/m 0,00 h 0,00 h 0 W/m 5,8 km/h (2 Bft) 97,23 %
15.05.2023 05:00 11,9 C 11,2 C 8,3 C 95 % 1014,4 hPa 0,0 l/m 0,00 h 0,00 h 5 W/m 4,6 km/h (1 Bft) 96,21 %
15.05.2023 06:00 11,6 C 10,7 C 7,8 C 94 % 1014,3 hPa 0,0 l/m 0,00 h 0,00 h 28 W/m 3,8 km/h (1 Bft) 99,43 %
15.05.2023 07:00 11,6 C 11,5 C 8,2 C 95 % 1014,5 hPa 0,0 l/m 0,00 h 0,00 h 82 W/m 9,2 km/h (2 Bft) 95,37 %
15.05.2023 08:00 12,2 C 13,6 C 9,0 C 92 % 1014,7 hPa 0,0 l/m 0,58 h 0,00 h 222 W/m 11,7 km/h (2 Bft) 97,98 %
15.05.2023 09:00 13,7 C 16,6 C 11,7 C 86 % 1014,8 hPa 0,0 l/m 0,80 h 0,00 h 411 W/m 13,1 km/h (3 Bft) 98,15 %
15.05.2023 10:00 15,1 C 16,8 C 12,5 C 80 % 1014,6 hPa 0,0 l/m 1,00 h 0,00 h 547 W/m 12,1 km/h (2 Bft) 98,01 %
15.05.2023 11:00 16,9 C 20,8 C 13,5 C 71 % 1014,5 hPa 0,0 l/m 1,00 h 0,00 h 735 W/m 13,7 km/h (3 Bft) 96,87 %
15.05.2023 12:00 19,2 C 25,0 C 21,1 C 60 % 1014,3 hPa 0,0 l/m 1,00 h 0,00 h 869 W/m 14,7 km/h (3 Bft) 96,70 %
15.05.2023 13:00 20,7 C 26,4 C 19,2 C 54 % 1013,8 hPa 0,0 l/m 1,00 h 0,00 h 868 W/m 15,1 km/h (3 Bft) 96,39 %
15.05.2023 14:00 21,5 C 26,6 C 16,9 C 56 % 1013,4 hPa 0,0 l/m 0,97 h 0,00 h 853 W/m 20,9 km/h (4 Bft) 99,65 %
15.05.2023 15:00 19,9 C 22,3 C 15,6 C 62 % 1013,5 hPa 0,0 l/m 0,97 h 0,00 h 608 W/m 22,1 km/h (4 Bft) 96,62 %
15.05.2023 16:00 19,1 C 20,2 C 14,9 C 65 % 1013,7 hPa 0,0 l/m 0,87 h 0,00 h 469 W/m 24,4 km/h (4 Bft) 97,36 %
15.05.2023 17:00 17,2 C 17,5 C 13,4 C 73 % 1014,1 hPa 0,0 l/m 0,17 h 0,00 h 248 W/m 21,7 km/h (4 Bft) 98,22 %
15.05.2023 18:00 17,5 C 18,0 C 13,6 C 72 % 1014,1 hPa 0,0 l/m 0,40 h 0,00 h 225 W/m 21,6 km/h (4 Bft) 98,09 %
15.05.2023 19:00 16,3 C 15,7 C 12,1 C 78 % 1014,5 hPa 0,0 l/m 0,00 h 0,00 h 78 W/m 18,7 km/h (3 Bft) 97,30 %
15.05.2023 20:00 14,9 C 14,0 C 10,6 C 80 % 1015,2 hPa 0,0 l/m 0,00 h 0,00 h 24 W/m 21,8 km/h (4 Bft) 98,58 %
15.05.2023 21:00 13,7 C 12,9 C 9,7 C 83 % 1015,9 hPa 0,0 l/m 0,00 h 0,00 h 0 W/m 16,1 km/h (3 Bft) 96,63 %
15.05.2023 22:00 13,1 C 12,3 C 9,2 C 84 % 1016,4 hPa 0,0 l/m 0,00 h 0,00 h 0 W/m 13,6 km/h (3 Bft) 97,47 %
15.05.2023 23:00 12,4 C 11,7 C 8,4 C 88 % 1016,5 hPa 0,0 l/m 0,00 h 0,00 h 0 W/m 14,0 km/h (3 Bft) 98,98 %
16.05.2023 00:00 11,7 C 10,9 C 7,4 C 92 % 1016,8 hPa 0,8 l/m 0,00 h 0,73 h 0 W/m 15,1 km/h (3 Bft) 96,34 %
16.05.2023 01:00 10,9 C 9,9 C 6,3 C 95 % 1017,1 hPa 1,6 l/m 0,00 h 1,00 h 0 W/m 17,2 km/h (3 Bft) 97,71 %
16.05.2023 02:00 9,8 C 8,8 C 5,3 C 96 % 1017,5 hPa 1,0 l/m 0,00 h 0,93 h 0 W/m 19,2 km/h (3 Bft) 96,35 %
16.05.2023 03:00 9,2 C 8,2 C 4,8 C 96 % 1017,9 hPa 0,0 l/m 0,00 h 0,23 h 0 W/m 16,7 km/h (3 Bft) 96,89 %
16.05.2023 04:00 8,8 C 8,1 C 4,4 C 96 % 1018,5 hPa 0,0 l/m 0,00 h 0,00 h 0 W/m 15,4 km/h (3 Bft) 96,79 %
16.05.2023 05:00 8,1 C 7,1 C 3,6 C 95 % 1019,1 hPa 0,0 l/m 0,00 h 0,00 h 5 W/m 14,8 km/h (3 Bft) 98,88 %
16.05.2023 06:00 7,5 C 6,7 C 3,3 C 94 % 1019,7 hPa 0,0 l/m 0,00 h 0,00 h 17 W/m 9,5 km/h (2 Bft) 96,89 %
16.05.2023 07:00 7,7 C 7,2 C 3,9 C 94 % 1020,3 hPa 0,0 l/m 0,07 h 0,00 h 52 W/m 10,2 km/h (2 Bft) 95,73 %
16.05.2023 08:00 9,0 C 10,5 C 5,3 C 91 % 1020,8 hPa 0,0 l/m 0,53 h 0,00 h 223 W/m 14,5 km/h (3 Bft) 98,85 %
16.05.2023 09:00 10,6 C 13,2 C 8,2 C 82 % 1021,1 hPa 0,0 l/m 0,40 h 0,00 h 298 W/m 18,7 km/h (3 Bft) 95,95 %
16.05.2023 10:00 11,5 C 12,3 C 8,3 C 76 % 1021,2 hPa 0,0 l/m 0,20 h 0,00 h 274 W/m 18,0 km/h (3 Bft) 96,66 %
16.05.2023 11:00 13,3 C 16,7 C 10,1 C 71 % 1021,1 hPa 0,0 l/m 0,60 h 0,00 h 629 W/m 16,8 km/h (3 Bft) 98,15 %
16.05.2023 12:00 14,2 C 16,2 C 11,6 C 67 % 1021,2 hPa 0,0 l/m 0,27 h 0,00 h 399 W/m 18,1 km/h (3 Bft) 98,65 %
16.05.2023 13:00 13,9 C 16,0 C 10,6 C 71 % 1021,2 hPa 0,2 l/m 0,33 h 0,07 h 457 W/m 14,8 km/h (3 Bft) 97,58 %
16.05.2023 14:00 15,2 C 20,7 C 11,1 C 64 % 1021,1 hPa 0,0 l/m 0,77 h 0,00 h 755 W/m 16,0 km/h (3 Bft) 97,87 %
16.05.2023 15:00 15,7 C 17,6 C 11,3 C 57 % 1021,2 hPa 0,0 l/m 0,33 h 0,00 h 430 W/m 23,6 km/h (4 Bft) 96,02 %
16.05.2023 16:00 15,1 C 15,5 C 11,0 C 59 % 1021,4 hPa 0,0 l/m 0,00 h 0,00 h 244 W/m 20,2 km/h (4 Bft) 98,98 %
16.05.2023 17:00 14,5 C 14,5 C 10,3 C 61 % 1021,8 hPa 0,0 l/m 0,00 h 0,00 h 175 W/m 20,2 km/h (4 Bft) 97,55 %
16.05.2023 18:00 14,1 C 14,2 C 10,0 C 64 % 1022,2 hPa 0,0 l/m 0,20 h 0,00 h 176 W/m 18,5 km/h (3 Bft) 96,54 %
16.05.2023 19:00 13,3 C 12,7 C 8,9 C 66 % 1022,6 hPa 0,0 l/m 0,00 h 0,00 h 45 W/m 17,1 km/h (3 Bft) 98,08 %
16.05.2023 20:00 12,7 C 11,9 C 8,3 C 71 % 1022,9 hPa 0,0 l/m 0,00 h 0,00 h 11 W/m 8,4 km/h (2 Bft) 98,01 %
16.05.2023 21:00 12,3 C 11,4 C 7,8 C 74 % 1023,2 hPa 0,0 l/m 0,00 h 0,00 h 0 W/m 4,1 km/h (1 Bft) 96,17 %
16.05.2023 22:00 11,8 C 11,0 C 7,3 C 77 % 1023,6 hPa 0,0 l/m 0,00 h 0,00 h 0 W/m 8,3 km/h (2 Bft) 98,65 %
16.05.2023 23:00 11,1 C 10,1 C 6,6 C 78 % 1023,8 hPa 0,0 l/m 0,00 h 0,00 h 0 W/m 9,9 km/h (2 Bft) 97,48 %
17.05.2023 00:00 10,0 C 8,7 C 5,4 C 82 % 1024,0 hPa 0,0 l/m 0,00 h 0,00 h 0 W/m 5,7 km/h (1 Bft) 96,68 %
17.05.2023 01:00 8,9 C 7,8 C 4,6 C 85 % 1024,3 hPa 0,0 l/m 0,00 h 0,00 h 0 W/m 5,5 km/h (1 Bft) 97,29 %
17.05.2023 02:00 8,2 C 7,0 C 3,9 C 87 % 1024,5 hPa 0,0 l/m 0,00 h 0,00 h 0 W/m 0,9 km/h (0 Bft) 98,04 %
17.05.2023 03:00 7,6 C 6,3 C 3,3 C 90 % 1024,6 hPa 0,0 l/m 0,00 h 0,00 h 0 W/m 1,1 km/h (0 Bft) 98,16 %
17.05.2023 04:00 7,2 C 6,1 C 3,1 C 92 % 1024,8 hPa 0,0 l/m 0,00 h 0,00 h 0 W/m 1,1 km/h (0 Bft) 96,92 %
17.05.2023 05:00 7,0 C 6,1 C 2,9 C 94 % 1025,2 hPa 0,0 l/m 0,00 h 0,00 h 5 W/m 1,7 km/h (1 Bft) 95,36 %
17.05.2023 06:00 7,6 C 7,2 C 4,1 C 95 % 1025,6 hPa 0,0 l/m 0,00 h 0,00 h 21 W/m 3,6 km/h (1 Bft) 95,27 %
17.05.2023 07:00 8,4 C 8,3 C 4,8 C 96 % 1026,2 hPa 0,0 l/m 0,03 h 0,00 h 65 W/m 9,1 km/h (2 Bft) 98,76 %
17.05.2023 08:00 9,7 C 14,0 C 6,4 C 93 % 1026,7 hPa 0,0 l/m 0,83 h 0,00 h 317 W/m 10,3 km/h (2 Bft) 96,84 %
17.05.2023 09:00 12,9 C 17,9 C 10,9 C 71 % 1027,1 hPa 0,0 l/m 1,00 h 0,00 h 608 W/m 15,7 km/h (3 Bft) 98,30 %
17.05.2023 10:00 14,0 C 16,4 C 11,6 C 65 % 1027,4 hPa 0,0 l/m 0,97 h 0,00 h 718 W/m 14,2 km/h (3 Bft) 96,52 %
17.05.2023 11:00 14,0 C 16,7 C 10,7 C 63 % 1027,6 hPa 0,0 l/m 0,50 h 0,00 h 505 W/m 14,5 km/h (3 Bft) 94,30 %
17.05.2023 12:00 14,9 C 18,7 C 14,1 C 60 % 1027,4 hPa 0,0 l/m 0,57 h 0,00 h 600 W/m 15,9 km/h (3 Bft) 97,79 %
17.05.2023 13:00 15,7 C 20,2 C 13,6 C 57 % 1027,1 hPa 0,0 l/m 0,60 h 0,00 h 720 W/m 16,4 km/h (3 Bft) 97,22 %
17.05.2023 14:00 16,6 C 22,7 C 12,1 C 53 % 1027,1 hPa 0,0 l/m 0,87 h 0,00 h 854 W/m 19,2 km/h (3 Bft) 98,33 %
17.05.2023 15:00 16,7 C 21,3 C 11,9 C 53 % 1027,0 hPa 0,0 l/m 0,90 h 0,00 h 824 W/m 15,9 km/h (3 Bft) 98,18 %
17.05.2023 16:00 16,8 C 21,2 C 12,2 C 52 % 1026,7 hPa 0,0 l/m 0,93 h 0,00 h 698 W/m 16,1 km/h (3 Bft) 96,09 %
17.05.2023 17:00 16,6 C 20,3 C 12,7 C 52 % 1026,6 hPa 0,0 l/m 0,87 h 0,00 h 495 W/m 15,0 km/h (3 Bft) 98,93 %
17.05.2023 18:00 16,5 C 20,3 C 12,6 C 53 % 1026,6 hPa 0,0 l/m 1,00 h 0,00 h 383 W/m 16,9 km/h (3 Bft) 98,01 %
17.05.2023 19:00 14,8 C 15,5 C 10,4 C 56 % 1026,8 hPa 0,0 l/m 0,50 h 0,00 h 146 W/m 14,1 km/h (3 Bft) 96,23 %
17.05.2023 20:00 13,6 C 13,0 C 9,2 C 58 % 1026,9 hPa 0,0 l/m 0,00 h 0,00 h 39 W/m 11,2 km/h (2 Bft) 99,50 %
17.05.2023 21:00 12,5 C 11,4 C 7,9 C 64 % 1027,1 hPa 0,0 l/m 0,00 h 0,00 h 9 W/m 5,0 km/h (1 Bft) 94,78 %
17.05.2023 22:00 11,3 C 10,1 C 6,9 C 68 % 1027,4 hPa 0,0 l/m 0,00 h 0,00 h 0 W/m 4,5 km/h (1 Bft) 98,05 %
17.05.2023 23:00 10,2 C 8,9 C 5,8 C 73 % 1027,5 hPa 0,0 l/m 0,00 h 0,00 h 0 W/m 2,2 km/h (1 Bft) 97,64 %
18.05.2023 00:00 9,2 C 7,9 C 4,8 C 76 % 1027,6 hPa 0,0 l/m 0,00 h 0,00 h 0 W/m 3,1 km/h (1 Bft) 98,54 %
18.05.2023 01:00 8,4 C 7,5 C 4,3 C 77 % 1027,7 hPa 0,0 l/m 0,00 h 0,00 h 0 W/m 5,5 km/h (1 Bft) 94,41 %
18.05.2023 02:00 7,7 C 6,8 C 3,4 C 79 % 1027,7 hPa 0,0 l/m 0,00 h 0,00 h 0 W/m 4,3 km/h (1 Bft) 97,69 %
18.05.2023 03:00 7,1 C 6,2 C 3,0 C 81 % 1027,6 hPa 0,0 l/m 0,00 h 0,00 h 0 W/m 4,8 km/h (1 Bft) 96,88 %
18.05.2023 04:00 6,7 C 5,7 C 2,8 C 83 % 1027,6 hPa 0,0 l/m 0,00 h 0,00 h 0 W/m 5,3 km/h (1 Bft) 99,65 %
18.05.2023 05:00 6,4 C 5,6 C 2,3 C 85 % 1027,7 hPa 0,0 l/m 0,00 h 0,00 h 8 W/m 6,4 km/h (2 Bft) 95,64 %
18.05.2023 06:00 6,3 C 5,9 C 2,4 C 86 % 1027,9 hPa 0,0 l/m 0,00 h 0,00 h 39 W/m 5,7 km/h (1 Bft) 97,80 %
18.05.2023 07:00 7,0 C 7,0 C 3,2 C 86 % 1028,1 hPa 0,0 l/m 0,10 h 0,00 h 78 W/m 8,9 km/h (2 Bft) 97,10 %
18.05.2023 08:00 9,2 C 13,6 C 5,3 C 80 % 1028,2 hPa 0,0 l/m 1,00 h 0,00 h 361 W/m 10,3 km/h (2 Bft) 95,03 %
18.05.2023 09:00 12,9 C 18,8 C 10,1 C 68 % 1028,4 hPa 0,0 l/m 1,00 h 0,00 h 538 W/m 9,3 km/h (2 Bft) 96,59 %
18.05.2023 10:00 14,0 C 17,0 C 11,4 C 62 % 1028,2 hPa 0,0 l/m 1,00 h 0,00 h 707 W/m 12,1 km/h (2 Bft) 96,65 %
18.05.2023 11:00 15,0 C 19,5 C 11,4 C 59 % 1028,0 hPa 0,0 l/m 0,93 h 0,00 h 799 W/m 11,6 km/h (2 Bft) 97,73 %
18.05.2023 12:00 16,2 C 22,2 C 16,4 C 56 % 1027,7 hPa 0,0 l/m 0,97 h 0,00 h 859 W/m 11,6 km/h (2 Bft) 98,51 %
18.05.2023 13:00 17,5 C 24,9 C 16,4 C 53 % 1027,3 hPa 0,0 l/m 1,00 h 0,00 h 940 W/m 12,4 km/h (3 Bft) 98,65 %
18.05.2023 14:00 18,1 C 25,3 C 13,3 C 52 % 1027,0 hPa 0,0 l/m 1,00 h 0,00 h 910 W/m 12,6 km/h (3 Bft) 97,24 %
18.05.2023 15:00 18,3 C 24,5 C 13,1 C 51 % 1026,5 hPa 0,0 l/m 1,00 h 0,00 h 831 W/m 15,0 km/h (3 Bft) 97,17 %
18.05.2023 16:00 18,5 C 23,6 C 13,8 C 51 % 1025,9 hPa 0,0 l/m 1,00 h 0,00 h 732 W/m 14,8 km/h (3 Bft) 96,66 %
18.05.2023 17:00 18,4 C 22,2 C 14,5 C 51 % 1025,7 hPa 0,0 l/m 1,00 h 0,00 h 541 W/m 14,1 km/h (3 Bft) 99,15 %
18.05.2023 18:00 18,3 C 22,3 C 14,4 C 53 % 1025,5 hPa 0,0 l/m 1,00 h 0,00 h 382 W/m 13,4 km/h (3 Bft) 97,34 %
18.05.2023 19:00 16,7 C 17,1 C 12,1 C 56 % 1025,3 hPa 0,0 l/m 0,53 h 0,00 h 155 W/m 13,1 km/h (3 Bft) 96,45 %
18.05.2023 20:00 15,3 C 14,4 C 10,8 C 59 % 1025,4 hPa 0,0 l/m 0,00 h 0,00 h 31 W/m 10,5 km/h (2 Bft) 98,29 %
18.05.2023 21:00 14,0 C 12,9 C 9,4 C 63 % 1025,7 hPa 0,0 l/m 0,00 h 0,00 h 8 W/m 6,6 km/h (2 Bft) 96,45 %
18.05.2023 22:00 13,0 C 11,8 C 8,5 C 67 % 1026,1 hPa 0,0 l/m 0,00 h 0,00 h 0 W/m 5,0 km/h (1 Bft) 95,91 %
18.05.2023 23:00 12,1 C 11,1 C 7,7 C 69 % 1026,4 hPa 0,0 l/m 0,00 h 0,00 h 0 W/m 5,6 km/h (1 Bft) 98,01 %
19.05.2023 00:00 11,4 C 10,4 C 7,1 C 72 % 1026,4 hPa 0,0 l/m 0,00 h 0,00 h 0 W/m 5,9 km/h (2 Bft) 98,16 %
19.05.2023 01:00 10,8 C 9,8 C 6,5 C 74 % 1026,3 hPa 0,0 l/m 0,00 h 0,00 h 0 W/m 5,6 km/h (1 Bft) 96,31 %
19.05.2023 02:00 10,0 C 8,7 C 5,6 C 77 % 1026,1 hPa 0,0 l/m 0,00 h 0,00 h 0 W/m 1,3 km/h (1 Bft) 97,94 %
19.05.2023 03:00 9,1 C 7,7 C 4,8 C 82 % 1026,0 hPa 0,0 l/m 0,00 h 0,00 h 0 W/m 0,3 km/h (0 Bft) 97,37 %
19.05.2023 04:00 8,4 C 7,2 C 4,2 C 85 % 1025,9 hPa 0,0 l/m 0,00 h 0,00 h 0 W/m 1,1 km/h (0 Bft) 98,95 %
19.05.2023 05:00 7,9 C 6,9 C 3,9 C 86 % 1025,8 hPa 0,0 l/m 0,00 h 0,00 h 7 W/m 3,0 km/h (1 Bft) 94,03 %
19.05.2023 06:00 7,9 C 7,4 C 4,1 C 87 % 1025,9 hPa 0,0 l/m 0,00 h 0,00 h 23 W/m 4,4 km/h (1 Bft) 96,80 %
19.05.2023 07:00 8,9 C 8,8 C 5,3 C 86 % 1025,9 hPa 0,0 l/m 0,10 h 0,00 h 71 W/m 7,5 km/h (2 Bft) 95,34 %
19.05.2023 08:00 11,9 C 15,7 C 7,9 C 78 % 1025,7 hPa 0,0 l/m 1,00 h 0,00 h 358 W/m 11,5 km/h (2 Bft) 97,47 %
19.05.2023 09:00 15,5 C 21,4 C 12,8 C 66 % 1025,7 hPa 0,0 l/m 1,00 h 0,00 h 540 W/m 11,0 km/h (2 Bft) 97,94 %
19.05.2023 10:00 17,2 C 20,0 C 14,7 C 59 % 1025,4 hPa 0,0 l/m 1,00 h 0,00 h 702 W/m 15,0 km/h (3 Bft) 98,29 %
19.05.2023 11:00 18,5 C 23,1 C 14,7 C 53 % 1024,9 hPa 0,0 l/m 1,00 h 0,00 h 824 W/m 14,9 km/h (3 Bft) 97,44 %
19.05.2023 12:00 19,8 C 25,9 C 20,1 C 51 % 1024,6 hPa 0,0 l/m 1,00 h 0,00 h 900 W/m 14,7 km/h (3 Bft) 97,11 %
19.05.2023 13:00 20,6 C 27,3 C 19,8 C 47 % 1024,3 hPa 0,0 l/m 1,00 h 0,00 h 925 W/m 14,0 km/h (3 Bft) 96,94 %
19.05.2023 14:00 21,5 C 29,1 C 16,5 C 47 % 1023,8 hPa 0,0 l/m 1,00 h 0,00 h 906 W/m 14,3 km/h (3 Bft) 97,30 %
19.05.2023 15:00 21,8 C 27,9 C 16,5 C 46 % 1023,4 hPa 0,0 l/m 1,00 h 0,00 h 839 W/m 13,4 km/h (3 Bft) 99,43 %
19.05.2023 16:00 22,0 C 27,2 C 17,2 C 47 % 1023,0 hPa 0,0 l/m 1,00 h 0,00 h 728 W/m 13,4 km/h (3 Bft) 94,79 %
19.05.2023 17:00 22,1 C 26,9 C 18,4 C 46 % 1022,7 hPa 0,0 l/m 1,00 h 0,00 h 574 W/m 13,2 km/h (3 Bft) 98,99 %
19.05.2023 18:00 21,5 C 26,1 C 17,8 C 46 % 1022,3 hPa 0,0 l/m 0,97 h 0,00 h 384 W/m 15,1 km/h (3 Bft) 98,36 %
19.05.2023 19:00 19,7 C 20,3 C 15,0 C 50 % 1022,2 hPa 0,0 l/m 0,57 h 0,00 h 158 W/m 16,2 km/h (3 Bft) 96,41 %
19.05.2023 20:00 18,2 C 17,4 C 13,6 C 52 % 1022,5 hPa 0,0 l/m 0,00 h 0,00 h 29 W/m 13,3 km/h (3 Bft) 98,59 %
19.05.2023 21:00 17,0 C 16,0 C 12,4 C 56 % 1022,8 hPa 0,0 l/m 0,00 h 0,00 h 8 W/m 10,9 km/h (2 Bft) 96,24 %
19.05.2023 22:00 16,0 C 14,8 C 11,3 C 59 % 1023,2 hPa 0,0 l/m 0,00 h 0,00 h 0 W/m 7,8 km/h (2 Bft) 96,11 %
19.05.2023 23:00 15,1 C 13,9 C 10,5 C 62 % 1023,5 hPa 0,0 l/m 0,00 h 0,00 h 0 W/m 6,6 km/h (2 Bft) 99,27 %
20.05.2023 00:00 14,1 C 13,0 C 9,5 C 67 % 1023,5 hPa 0,0 l/m 0,00 h 0,00 h 0 W/m 4,5 km/h (1 Bft) 94,47 %
20.05.2023 01:00 13,4 C 12,2 C 8,9 C 70 % 1023,3 hPa 0,0 l/m 0,00 h 0,00 h 0 W/m 3,9 km/h (1 Bft) 97,26 %
20.05.2023 02:00 12,6 C 11,6 C 8,2 C 73 % 1023,3 hPa 0,0 l/m 0,00 h 0,00 h 0 W/m 4,1 km/h (1 Bft) 94,82 %
20.05.2023 03:00 11,9 C 10,7 C 7,4 C 75 % 1023,2 hPa 0,0 l/m 0,00 h 0,00 h 0 W/m 3,5 km/h (1 Bft) 98,36 %
20.05.2023 04:00 11,5 C 10,6 C 7,2 C 77 % 1023,0 hPa 0,0 l/m 0,00 h 0,00 h 0 W/m 3,5 km/h (1 Bft) 96,37 %
20.05.2023 05:00 11,2 C 10,4 C 7,1 C 78 % 1022,7 hPa 0,0 l/m 0,00 h 0,00 h 5 W/m 6,2 km/h (2 Bft) 97,23 %
20.05.2023 06:00 11,3 C 10,6 C 7,2 C 79 % 1022,6 hPa 0,0 l/m 0,00 h 0,00 h 19 W/m 7,4 km/h (2 Bft) 97,80 %
20.05.2023 07:00 12,1 C 11,9 C 8,1 C 79 % 1022,4 hPa 0,0 l/m 0,13 h 0,00 h 77 W/m 12,7 km/h (3 Bft) 95,85 %
20.05.2023 08:00 14,5 C 18,0 C 10,4 C 74 % 1022,1 hPa 0,0 l/m 0,97 h 0,00 h 337 W/m 15,9 km/h (3 Bft) 98,50 %
20.05.2023 09:00 16,1 C 18,7 C 12,7 C 70 % 1021,8 hPa 0,0 l/m 0,80 h 0,00 h 368 W/m 16,3 km/h (3 Bft) 98,22 %
20.05.2023 10:00 16,5 C 17,4 C 12,7 C 70 % 1021,6 hPa 0,0 l/m 0,37 h 0,00 h 323 W/m 17,1 km/h (3 Bft) 97,15 %
20.05.2023 11:00 17,2 C 19,0 C 13,9 C 69 % 1021,4 hPa 0,0 l/m 1,00 h 0,00 h 484 W/m 17,3 km/h (3 Bft) 96,23 %
20.05.2023 12:00 18,3 C 20,8 C 15,8 C 68 % 1021,2 hPa 0,0 l/m 1,00 h 0,00 h 623 W/m 17,3 km/h (3 Bft) 98,61 %
20.05.2023 13:00 18,9 C 22,1 C 16,1 C 67 % 1021,1 hPa 0,0 l/m 1,00 h 0,00 h 654 W/m 18,9 km/h (3 Bft) 97,00 %
20.05.2023 14:00 19,6 C 23,5 C 16,2 C 67 % 1020,6 hPa 0,0 l/m 1,00 h 0,00 h 699 W/m 18,4 km/h (3 Bft) 98,30 %
20.05.2023 15:00 20,7 C 23,5 C 17,0 C 65 % 1019,9 hPa 0,0 l/m 0,93 h 0,00 h 529 W/m 17,5 km/h (3 Bft) 96,01 %
20.05.2023 16:00 20,7 C 23,1 C 17,1 C 64 % 1019,3 hPa 0,0 l/m 1,00 h 0,00 h 500 W/m 16,8 km/h (3 Bft) 99,57 %
20.05.2023 17:00 20,2 C 21,2 C 16,3 C 64 % 1019,1 hPa 0,0 l/m 0,40 h 0,00 h 243 W/m 15,8 km/h (3 Bft) 96,71 %
20.05.2023 18:00 18,9 C 18,6 C 14,7 C 67 % 1019,0 hPa 0,0 l/m 0,00 h 0,00 h 81 W/m 14,9 km/h (3 Bft) 96,97 %
20.05.2023 19:00 18,0 C 17,6 C 13,6 C 69 % 1019,3 hPa 0,0 l/m 0,00 h 0,00 h 46 W/m 11,5 km/h (2 Bft) 98,22 %
20.05.2023 20:00 17,4 C 16,8 C 13,0 C 72 % 1019,3 hPa 0,0 l/m 0,00 h 0,00 h 22 W/m 10,7 km/h (2 Bft) 97,86 %
20.05.2023 21:00 16,8 C 16,0 C 12,3 C 74 % 1019,4 hPa 0,0 l/m 0,00 h 0,00 h 5 W/m 8,5 km/h (2 Bft) 96,53 %
20.05.2023 22:00 15,7 C 14,5 C 11,0 C 78 % 1019,5 hPa 0,0 l/m 0,00 h 0,00 h 0 W/m 5,2 km/h (1 Bft) 99,29 %
20.05.2023 23:00 14,4 C 13,4 C 10,0 C 82 % 1019,2 hPa 0,0 l/m 0,00 h 0,00 h 0 W/m 6,0 km/h (2 Bft) 96,38 %
21.05.2023 00:00 14,3 C 13,3 C 10,0 C 83 % 1018,7 hPa 0,0 l/m 0,00 h 0,00 h 0 W/m 9,2 km/h (2 Bft) 97,27 %
21.05.2023 01:00 13,9 C 12,9 C 9,4 C 85 % 1018,2 hPa 0,0 l/m 0,00 h 0,00 h 0 W/m 5,1 km/h (1 Bft) 95,87 %
21.05.2023 02:00 13,4 C 12,3 C 8,9 C 87 % 1017,7 hPa 0,0 l/m 0,00 h 0,00 h 0 W/m 4,4 km/h (1 Bft) 96,66 %
21.05.2023 03:00 13,3 C 12,3 C 8,9 C 88 % 1017,4 hPa 0,0 l/m 0,00 h 0,00 h 0 W/m 3,8 km/h (1 Bft) 96,80 %
21.05.2023 04:00 13,2 C 12,2 C 8,9 C 88 % 1017,1 hPa 0,0 l/m 0,00 h 0,00 h 0 W/m 2,9 km/h (1 Bft) 95,44 %
21.05.2023 05:00 12,9 C 12,1 C 8,8 C 89 % 1016,9 hPa 0,0 l/m 0,00 h 0,00 h 6 W/m 4,3 km/h (1 Bft) 99,52 %
21.05.2023 06:00 12,7 C 12,2 C 8,8 C 90 % 1017,0 hPa 0,0 l/m 0,00 h 0,00 h 23 W/m 3,9 km/h (1 Bft) 93,14 %
21.05.2023 07:00 13,3 C 13,1 C 9,4 C 90 % 1016,9 hPa 0,0 l/m 0,00 h 0,00 h 78 W/m 6,2 km/h (2 Bft) 98,73 %
21.05.2023 08:00 14,3 C 14,9 C 10,6 C 87 % 1016,8 hPa 0,0 l/m 0,17 h 0,00 h 174 W/m 9,5 km/h (2 Bft) 98,51 %
21.05.2023 09:00 16,7 C 19,7 C 13,6 C 82 % 1016,8 hPa 0,0 l/m 0,97 h 0,00 h 411 W/m 8,9 km/h (2 Bft) 95,87 %
21.05.2023 10:00 18,5 C 20,6 C 15,1 C 77 % 1016,7 hPa 0,0 l/m 1,00 h 0,00 h 455 W/m 9,2 km/h (2 Bft) 97,53 %
21.05.2023 11:00 19,4 C 21,5 C 16,0 C 75 % 1016,5 hPa 0,0 l/m 0,87 h 0,00 h 526 W/m 11,9 km/h (2 Bft) 97,95 %
21.05.2023 12:00 20,9 C 23,9 C 18,6 C 72 % 1016,2 hPa 0,0 l/m 0,83 h 0,00 h 558 W/m 11,4 km/h (2 Bft) 97,73 %
21.05.2023 13:00 21,7 C 25,9 C 20,0 C 71 % 1015,7 hPa 0,0 l/m 1,00 h 0,00 h 736 W/m 14,3 km/h (3 Bft) 97,78 %
21.05.2023 14:00 23,5 C 29,3 C 18,7 C 67 % 1015,3 hPa 0,0 l/m 1,00 h 0,00 h 859 W/m 16,2 km/h (3 Bft) 96,26 %
21.05.2023 15:00 24,7 C 29,8 C 19,6 C 65 % 1015,0 hPa 0,0 l/m 1,00 h 0,00 h 806 W/m 12,8 km/h (3 Bft) 98,93 %
21.05.2023 16:00 25,8 C 29,8 C 20,7 C 62 % 1014,8 hPa 0,0 l/m 1,00 h 0,00 h 676 W/m 12,2 km/h (3 Bft) 95,96 %
21.05.2023 17:00 25,8 C 28,8 C 21,4 C 62 % 1014,4 hPa 0,0 l/m 0,93 h 0,00 h 461 W/m 13,7 km/h (3 Bft) 97,73 %
21.05.2023 18:00 24,9 C 26,7 C 20,6 C 65 % 1014,3 hPa 0,0 l/m 0,80 h 0,00 h 298 W/m 9,7 km/h (2 Bft) 98,75 %
21.05.2023 19:00 24,1 C 23,9 C 19,2 C 68 % 1014,3 hPa 0,0 l/m 0,80 h 0,00 h 143 W/m 9,2 km/h (2 Bft) 96,77 %
21.05.2023 20:00 23,2 C 22,5 C 18,5 C 71 % 1014,5 hPa 0,0 l/m 0,53 h 0,00 h 63 W/m 9,3 km/h (2 Bft) 97,17 %
21.05.2023 21:00 22,0 C 20,5 C 16,5 C 77 % 1014,8 hPa 0,4 l/m 0,00 h 0,33 h 8 W/m 6,6 km/h (2 Bft) 98,44 %
21.05.2023 22:00 19,7 C 18,2 C 14,1 C 89 % 1014,5 hPa 0,0 l/m 0,00 h 0,03 h 0 W/m 7,4 km/h (2 Bft) 96,38 %
21.05.2023 23:00 19,0 C 18,1 C 14,3 C 91 % 1014,5 hPa 0,2 l/m 0,00 h 0,00 h 0 W/m 8,0 km/h (2 Bft) 97,87 %
Min-Datum _ 18.05.23 18.05.23 18.05.23 19.05.23 15.05.23 - - - - 15.05.23 15.05.23
_ Min-Zeit 05:56 04:08 05:00 14:40 14:26 - - - - 02:46 00:02
Minimum _ 6,2 C 5,6 C 2,2 C 44 % 1013,3 hPa - - - - 0,0 km/h (0 Bft) 9,52 %
Max-Datum _ 21.05.23 19.05.23 15.05.23 16.05.23 18.05.23 16.05.23 15.05.23 16.05.23 17.05.23 16.05.23 15.05.23
_ Max-Zeit 16:40 14:18 12:42 03:14 08:48 01:06 08:31 02:17 13:42 02:06 00:14
Maximum _ 26,1 C 31,1 C 23,9 C 97 % 1028,4 hPa 1,6 l/m 0,08 h 0,08 h 1151 W/m 48,3 km/h
N-NW (6 Bft)
100,00 %
Durchschnitt _ 14,6 C 15,8 C 10,7 C 73 % 1021,5 hPa #4,2 l/m #64:41 h #3:20 h 382 W/m 11,1 km/h (2 Bft) 97,28 %
© 2023 W. Hausmann